createdAt,value
2023-01-13T00:01:23.554Z,3.35
2023-01-13T00:03:49.915Z,2.40
2023-01-13T00:06:16.316Z,2.60
2023-01-13T00:08:43.818Z,2.20
2023-01-13T00:11:10.191Z,2.05
2023-01-13T00:13:36.550Z,2.25
2023-01-13T00:16:02.939Z,3.00
2023-01-13T00:18:29.357Z,2.65
2023-01-13T00:20:55.718Z,2.38
2023-01-13T00:23:22.077Z,2.28
2023-01-13T00:25:48.455Z,2.25
2023-01-13T00:28:14.813Z,2.25
2023-01-13T00:30:41.175Z,2.80
2023-01-13T00:33:07.548Z,2.80
2023-01-13T00:35:33.909Z,3.78
2023-01-13T00:38:00.274Z,2.92
2023-01-13T00:40:26.648Z,4.13
2023-01-13T00:42:53.011Z,2.97
2023-01-13T00:45:19.407Z,4.20
2023-01-13T00:47:45.769Z,3.78
2023-01-13T00:50:12.139Z,3.78
2023-01-13T00:52:40.055Z,3.08
2023-01-13T00:55:07.552Z,3.00
2023-01-13T00:57:33.923Z,3.70
2023-01-13T01:00:00.295Z,3.65
2023-01-13T01:02:26.687Z,4.40
2023-01-13T01:04:53.089Z,2.97
2023-01-13T01:07:19.481Z,4.75
2023-01-13T01:09:45.850Z,3.85
2023-01-13T01:12:12.252Z,3.33
2023-01-13T01:14:38.663Z,3.08
2023-01-13T01:17:05.057Z,2.92
2023-01-13T01:19:31.458Z,3.10
2023-01-13T01:21:57.926Z,4.25
2023-01-13T01:24:24.384Z,4.30
2023-01-13T01:26:50.866Z,3.33
2023-01-13T01:29:17.232Z,2.90
2023-01-13T01:31:43.660Z,3.60
2023-01-13T01:34:10.074Z,4.78
2023-01-13T01:36:36.453Z,3.95
2023-01-13T01:39:02.855Z,4.05
2023-01-13T01:41:29.221Z,3.83
2023-01-13T01:43:55.588Z,4.22
2023-01-13T01:46:21.993Z,3.40
2023-01-13T01:48:48.422Z,3.55
2023-01-13T01:51:14.796Z,3.47
2023-01-13T01:53:41.171Z,3.50
2023-01-13T01:56:07.534Z,3.88
2023-01-13T01:58:33.903Z,3.78
2023-01-13T02:01:00.341Z,3.88
2023-01-13T02:03:26.752Z,4.22
2023-01-13T02:05:53.116Z,4.28
2023-01-13T02:08:19.527Z,3.95
2023-01-13T02:10:45.892Z,3.25
2023-01-13T02:13:12.260Z,3.65
2023-01-13T02:15:38.649Z,4.63
2023-01-13T02:18:05.013Z,4.03
2023-01-13T02:20:31.375Z,3.83
2023-01-13T02:22:57.752Z,4.35
2023-01-13T02:25:24.140Z,4.93
2023-01-13T02:27:50.507Z,4.25
2023-01-13T02:30:16.859Z,3.70
2023-01-13T02:32:43.229Z,4.55
2023-01-13T02:35:09.594Z,4.90
2023-01-13T02:37:35.957Z,4.68
2023-01-13T02:40:02.327Z,3.40
2023-01-13T02:42:28.691Z,2.95
2023-01-13T02:44:55.074Z,3.55
2023-01-13T02:47:21.463Z,4.00
2023-01-13T02:49:47.943Z,4.53
2023-01-13T02:52:14.309Z,3.85
2023-01-13T02:54:40.673Z,4.65
2023-01-13T02:57:07.068Z,5.32
2023-01-13T02:59:33.504Z,3.70
2023-01-13T03:02:00.077Z,3.83
2023-01-13T03:04:26.546Z,4.15
2023-01-13T03:06:52.939Z,5.68
2023-01-13T03:09:19.377Z,4.28
2023-01-13T03:11:45.827Z,4.60
2023-01-13T03:14:12.272Z,3.90
2023-01-13T03:16:38.766Z,4.38
2023-01-13T03:19:05.162Z,3.88
2023-01-13T03:21:31.576Z,5.28
2023-01-13T03:23:58.003Z,3.50
2023-01-13T03:26:24.428Z,3.38
2023-01-13T03:28:50.796Z,3.97
2023-01-13T03:31:17.188Z,2.83
2023-01-13T03:33:43.556Z,5.63
2023-01-13T03:36:09.983Z,4.45
2023-01-13T03:38:36.383Z,4.68
2023-01-13T03:41:02.760Z,3.70
2023-01-13T03:43:29.190Z,3.63
2023-01-13T03:45:55.697Z,3.72
2023-01-13T03:48:22.163Z,3.60
2023-01-13T03:50:48.552Z,4.75
2023-01-13T03:53:14.942Z,3.97
2023-01-13T03:55:41.358Z,3.97
2023-01-13T03:58:07.749Z,3.28
2023-01-13T04:00:34.173Z,3.78
2023-01-13T04:03:00.606Z,3.75
2023-01-13T04:05:26.988Z,3.97
2023-01-13T04:07:53.361Z,3.42
2023-01-13T04:10:19.725Z,3.25
2023-01-13T04:12:46.095Z,3.85
2023-01-13T04:15:12.480Z,2.90
2023-01-13T04:17:38.906Z,3.58
2023-01-13T04:20:05.331Z,3.47
2023-01-13T04:22:31.730Z,3.80
2023-01-13T04:24:58.104Z,4.53
2023-01-13T04:27:24.473Z,4.10
2023-01-13T04:29:50.900Z,4.72
2023-01-13T04:32:17.344Z,4.72
2023-01-13T04:34:43.731Z,3.63
2023-01-13T04:37:10.162Z,4.15
2023-01-13T04:39:36.615Z,3.83
2023-01-13T04:42:03.046Z,5.38
2023-01-13T04:44:29.425Z,4.60
2023-01-13T04:46:55.796Z,4.65
2023-01-13T04:49:22.171Z,4.53
2023-01-13T04:51:48.547Z,3.83
2023-01-13T04:54:14.962Z,4.63
2023-01-13T04:56:41.392Z,4.20
2023-01-13T04:59:07.837Z,3.60
2023-01-13T05:01:34.407Z,4.15
2023-01-13T05:04:00.939Z,4.10
2023-01-13T05:06:27.484Z,4.32
2023-01-13T05:08:53.875Z,3.25
2023-01-13T05:11:20.292Z,3.25
2023-01-13T05:13:46.660Z,3.13
2023-01-13T05:16:13.123Z,3.83
2023-01-13T05:18:39.509Z,3.80
2023-01-13T05:21:05.893Z,2.88
2023-01-13T05:23:32.284Z,4.30
2023-01-13T05:25:58.668Z,2.80
2023-01-13T05:28:25.054Z,4.47
2023-01-13T05:30:51.470Z,3.95
2023-01-13T05:33:17.931Z,2.40
2023-01-13T05:35:44.366Z,3.22
2023-01-13T05:38:10.753Z,3.05
2023-01-13T05:40:37.144Z,2.80
2023-01-13T05:43:03.561Z,2.10
2023-01-13T05:45:30.006Z,2.45
2023-01-13T05:47:56.434Z,2.15
2023-01-13T05:50:22.864Z,2.65
2023-01-13T05:52:49.294Z,2.10
2023-01-13T05:55:15.687Z,2.05
2023-01-13T05:57:42.063Z,2.30
2023-01-13T06:00:08.482Z,2.83
2023-01-13T06:02:34.925Z,2.17
2023-01-13T06:05:01.308Z,2.22
2023-01-13T06:07:27.688Z,2.30
2023-01-13T06:09:54.118Z,2.40
2023-01-13T06:12:20.543Z,2.10
2023-01-13T06:14:46.974Z,2.85
2023-01-13T06:17:13.405Z,2.10
2023-01-13T06:19:39.791Z,2.40
2023-01-13T06:22:06.154Z,1.85
2023-01-13T06:24:32.531Z,2.38
2023-01-13T06:26:58.947Z,1.70
2023-01-13T06:29:25.379Z,2.20
2023-01-13T06:31:51.793Z,2.55
2023-01-13T06:34:18.260Z,2.67
2023-01-13T06:36:44.699Z,2.55
2023-01-13T06:39:11.137Z,2.30
2023-01-13T06:41:37.595Z,1.83
2023-01-13T06:44:04.032Z,2.25
2023-01-13T06:46:30.450Z,2.00
2023-01-13T06:48:56.904Z,2.63
2023-01-13T06:51:23.314Z,2.53
2023-01-13T06:53:49.676Z,2.13
2023-01-13T06:56:16.082Z,4.07
2023-01-13T06:58:42.517Z,2.17
2023-01-13T07:01:09.040Z,2.45
2023-01-13T07:03:35.515Z,2.55
2023-01-13T07:06:01.896Z,2.80
2023-01-13T07:08:28.325Z,3.13
2023-01-13T07:10:54.755Z,2.15
2023-01-13T07:13:21.132Z,2.90
2023-01-13T07:15:47.509Z,3.33
2023-01-13T07:18:13.945Z,2.85
2023-01-13T07:20:40.406Z,3.22
2023-01-13T07:23:06.824Z,3.03
2023-01-13T07:25:33.263Z,2.75
2023-01-13T07:27:59.670Z,2.90
2023-01-13T07:30:26.052Z,2.85
2023-01-13T07:32:52.474Z,2.72
2023-01-13T07:35:18.906Z,2.40
2023-01-13T07:37:45.335Z,3.00
2023-01-13T07:40:11.755Z,2.83
2023-01-13T07:42:38.208Z,2.55
2023-01-13T07:45:04.594Z,2.60
2023-01-13T07:47:30.964Z,3.72
2023-01-13T07:49:57.383Z,2.67
2023-01-13T07:52:23.840Z,3.10
2023-01-13T07:54:50.284Z,3.13
2023-01-13T07:57:16.713Z,2.88
2023-01-13T07:59:43.088Z,2.97
2023-01-13T08:02:09.591Z,2.90
2023-01-13T08:04:36.101Z,4.45
2023-01-13T08:07:02.481Z,4.13
2023-01-13T08:09:28.852Z,2.55
2023-01-13T08:11:55.241Z,3.17
2023-01-13T08:14:21.618Z,3.17
2023-01-13T08:16:48.139Z,3.10
2023-01-13T08:19:14.541Z,3.00
2023-01-13T08:21:40.914Z,4.18
2023-01-13T08:24:07.294Z,3.63
2023-01-13T08:26:33.678Z,3.28
2023-01-13T08:29:00.089Z,2.97
2023-01-13T08:31:26.663Z,3.30
2023-01-13T08:33:53.069Z,3.40
2023-01-13T08:36:19.463Z,2.95
2023-01-13T08:38:45.904Z,3.60
2023-01-13T08:41:12.339Z,3.42
2023-01-13T08:43:38.773Z,2.97
2023-01-13T08:46:05.268Z,4.63
2023-01-13T08:48:31.863Z,4.47
2023-01-13T08:50:58.315Z,3.20
2023-01-13T08:53:24.718Z,4.22
2023-01-13T08:55:51.142Z,3.33
2023-01-13T08:58:17.580Z,3.97
2023-01-13T09:00:43.971Z,3.20
2023-01-13T09:03:10.499Z,3.50
2023-01-13T09:05:36.893Z,2.53
2023-01-13T09:08:03.276Z,2.97
2023-01-13T09:10:29.698Z,4.35
2023-01-13T09:12:56.072Z,3.03
2023-01-13T09:15:22.492Z,2.70
2023-01-13T09:17:48.920Z,3.85
2023-01-13T09:20:15.344Z,3.22
2023-01-13T09:22:41.781Z,3.95
2023-01-13T09:25:08.169Z,3.63
2023-01-13T09:27:34.609Z,3.75
2023-01-13T09:30:01.045Z,3.33
2023-01-13T09:32:27.473Z,3.60
2023-01-13T09:34:53.910Z,3.25
2023-01-13T09:37:20.310Z,3.72
2023-01-13T09:39:46.730Z,3.80
2023-01-13T09:42:13.165Z,3.47
2023-01-13T09:44:39.608Z,3.05
2023-01-13T09:47:06.040Z,3.88
2023-01-13T09:49:32.425Z,3.50
2023-01-13T09:51:58.835Z,2.78
2023-01-13T09:54:25.231Z,3.28
2023-01-13T09:56:51.607Z,4.00
2023-01-13T09:59:18.029Z,3.45
2023-01-13T10:01:44.470Z,3.33
2023-01-13T10:04:10.890Z,3.70
2023-01-13T10:06:37.325Z,3.33
2023-01-13T10:09:03.771Z,3.22
2023-01-13T10:11:30.246Z,4.28
2023-01-13T10:13:56.688Z,4.35
2023-01-13T10:16:23.118Z,3.63
2023-01-13T10:18:49.592Z,2.97
2023-01-13T10:21:15.968Z,3.25
2023-01-13T10:23:42.366Z,3.60
2023-01-13T10:26:08.765Z,3.42
2023-01-13T10:28:35.247Z,2.80
2023-01-13T10:31:01.712Z,3.67
2023-01-13T10:33:28.230Z,4.15
2023-01-13T10:35:54.623Z,3.72
2023-01-13T10:38:21.047Z,3.35
2023-01-13T10:40:47.522Z,3.22
2023-01-13T10:43:13.967Z,3.08
2023-01-13T10:45:40.347Z,3.30
2023-01-13T10:48:06.763Z,3.70
2023-01-13T10:50:33.187Z,3.55
2023-01-13T10:52:59.564Z,3.20
2023-01-13T10:55:25.995Z,3.80
2023-01-13T10:57:52.401Z,3.58
2023-01-13T11:00:18.773Z,3.20
2023-01-13T11:02:45.173Z,3.15
2023-01-13T11:05:11.662Z,3.80
2023-01-13T11:07:38.078Z,4.63
2023-01-13T11:10:04.510Z,3.65
2023-01-13T11:12:30.897Z,3.28
2023-01-13T11:14:57.315Z,3.55
2023-01-13T11:17:23.758Z,2.88
2023-01-13T11:19:50.195Z,3.42
2023-01-13T11:22:16.637Z,3.13
2023-01-13T11:24:43.054Z,3.83
2023-01-13T11:27:09.438Z,3.40
2023-01-13T11:29:35.821Z,3.75
2023-01-13T11:32:02.253Z,3.75
2023-01-13T11:34:28.625Z,3.72
2023-01-13T11:36:55.051Z,3.60
2023-01-13T11:39:21.492Z,3.60
2023-01-13T11:41:47.909Z,3.65
2023-01-13T11:44:14.320Z,3.65
2023-01-13T11:46:40.762Z,2.95
2023-01-13T11:49:07.276Z,3.50
2023-01-13T11:51:33.722Z,3.25
2023-01-13T11:54:00.155Z,2.63
2023-01-13T11:56:26.576Z,4.13
2023-01-13T11:58:53.013Z,3.45
2023-01-13T12:01:22.225Z,3.25
2023-01-13T12:03:49.471Z,3.10
2023-01-13T12:06:15.894Z,2.90
2023-01-13T12:08:42.346Z,3.08
2023-01-13T12:11:08.731Z,2.65
2023-01-13T12:13:35.171Z,2.78
2023-01-13T12:16:01.603Z,3.67
2023-01-13T12:18:28.038Z,3.10
2023-01-13T12:20:54.433Z,3.80
2023-01-13T12:23:20.875Z,4.55
2023-01-13T12:25:47.267Z,3.05
2023-01-13T12:28:13.696Z,4.32
2023-01-13T12:30:40.138Z,2.88
2023-01-13T12:33:06.576Z,3.33
2023-01-13T12:35:33.011Z,2.97
2023-01-13T12:37:59.393Z,3.08
2023-01-13T12:40:25.751Z,3.75
2023-01-13T12:42:52.118Z,3.60
2023-01-13T12:45:18.683Z,2.95
2023-01-13T12:47:45.073Z,3.83
2023-01-13T12:50:11.460Z,3.13
2023-01-13T12:52:37.847Z,2.60
2023-01-13T12:55:04.236Z,3.17
2023-01-13T12:57:30.606Z,2.55
2023-01-13T12:59:56.974Z,2.17
2023-01-13T13:02:23.391Z,3.08
2023-01-13T13:04:49.811Z,3.63
2023-01-13T13:07:16.187Z,4.18
2023-01-13T13:09:42.558Z,2.47
2023-01-13T13:12:08.949Z,3.22
2023-01-13T13:14:35.384Z,2.80
2023-01-13T13:17:01.849Z,3.25
2023-01-13T13:19:28.251Z,3.33
2023-01-13T13:21:54.621Z,2.45
2023-01-13T13:24:20.999Z,3.40
2023-01-13T13:26:47.411Z,2.72
2023-01-13T13:29:13.774Z,3.10
2023-01-13T13:31:40.139Z,2.72
2023-01-13T13:34:06.557Z,2.60
2023-01-13T13:36:32.986Z,2.35
2023-01-13T13:38:59.378Z,2.90
2023-01-13T13:41:25.953Z,2.20
2023-01-13T13:43:52.378Z,2.55
2023-01-13T13:46:18.847Z,3.42
2023-01-13T13:48:45.270Z,2.50
2023-01-13T13:51:11.728Z,2.42
2023-01-13T13:53:38.163Z,2.10
2023-01-13T13:56:04.601Z,2.97
2023-01-13T13:58:31.043Z,2.40
2023-01-13T14:00:57.524Z,2.42
2023-01-13T14:03:24.048Z,3.03
2023-01-13T14:05:50.477Z,2.55
2023-01-13T14:08:16.864Z,2.53
2023-01-13T14:10:43.428Z,2.85
2023-01-13T14:13:09.888Z,3.30
2023-01-13T14:15:36.389Z,2.55
2023-01-13T14:18:02.819Z,2.60
2023-01-13T14:20:29.281Z,2.75
2023-01-13T14:22:55.676Z,2.40
2023-01-13T14:25:22.087Z,1.90
2023-01-13T14:27:48.502Z,2.97
2023-01-13T14:30:14.858Z,2.65
2023-01-13T14:32:41.215Z,2.45
2023-01-13T14:35:07.673Z,2.53
2023-01-13T14:37:34.107Z,2.50
2023-01-13T14:40:00.614Z,2.35
2023-01-13T14:42:27.075Z,2.00
2023-01-13T14:44:54.397Z,2.15
2023-01-13T14:47:21.994Z,3.22
2023-01-13T14:49:48.377Z,2.03
2023-01-13T14:52:14.793Z,2.00
2023-01-13T14:54:41.233Z,2.00
2023-01-13T14:57:07.706Z,2.20
2023-01-13T14:59:34.073Z,2.28
2023-01-13T15:02:00.477Z,2.10
2023-01-13T15:04:26.938Z,2.47
2023-01-13T15:06:53.384Z,2.40
2023-01-13T15:09:19.826Z,2.22
2023-01-13T15:11:46.509Z,2.20
2023-01-13T15:14:12.941Z,2.08
2023-01-13T15:16:39.319Z,1.88
2023-01-13T15:19:05.746Z,1.48
2023-01-13T15:21:32.168Z,1.80
2023-01-13T15:23:58.547Z,2.00
2023-01-13T15:26:24.919Z,1.60
2023-01-13T15:28:51.289Z,2.20
2023-01-13T15:31:17.756Z,1.77
2023-01-13T15:33:44.206Z,2.42
2023-01-13T15:36:10.588Z,2.28
2023-01-13T15:38:37.027Z,2.38
2023-01-13T15:41:03.455Z,2.20
2023-01-13T15:43:29.842Z,1.92
2023-01-13T15:45:56.219Z,2.08
2023-01-13T15:48:22.670Z,2.30
2023-01-13T15:50:49.098Z,2.40
2023-01-13T15:53:15.562Z,1.95
2023-01-13T15:55:41.926Z,2.63
2023-01-13T15:58:08.341Z,2.47
2023-01-13T16:00:34.899Z,2.63
2023-01-13T16:03:01.425Z,2.72
2023-01-13T16:05:27.857Z,2.72
2023-01-13T16:07:54.233Z,2.30
2023-01-13T16:10:20.652Z,2.30
2023-01-13T16:12:47.037Z,2.28
2023-01-13T16:15:13.432Z,2.00
2023-01-13T16:17:39.804Z,2.63
2023-01-13T16:20:06.176Z,2.20
2023-01-13T16:22:32.619Z,2.25
2023-01-13T16:24:59.052Z,2.30
2023-01-13T16:27:25.494Z,2.30
2023-01-13T16:29:51.948Z,1.85
2023-01-13T16:32:18.361Z,2.63
2023-01-13T16:34:44.772Z,3.30
2023-01-13T16:37:11.210Z,2.30
2023-01-13T16:39:37.591Z,2.15
2023-01-13T16:42:03.970Z,2.00
2023-01-13T16:44:30.414Z,2.15
2023-01-13T16:46:56.796Z,2.30
2023-01-13T16:49:23.156Z,1.80
2023-01-13T16:51:49.578Z,1.90
2023-01-13T16:54:15.954Z,1.88
2023-01-13T16:56:42.383Z,2.20
2023-01-13T16:59:08.800Z,2.28
2023-01-13T17:01:35.250Z,3.40
2023-01-13T17:04:01.685Z,2.40
2023-01-13T17:06:28.115Z,1.60
2023-01-13T17:08:54.497Z,1.70
2023-01-13T17:11:20.957Z,1.90
2023-01-13T17:13:47.333Z,2.53
2023-01-13T17:16:13.970Z,2.78
2023-01-13T17:18:40.403Z,2.22
2023-01-13T17:21:06.784Z,3.08
2023-01-13T17:23:33.223Z,2.60
2023-01-13T17:25:59.607Z,1.80
2023-01-13T17:28:26.036Z,2.20
2023-01-13T17:30:52.460Z,2.40
2023-01-13T17:33:18.862Z,1.92
2023-01-13T17:35:45.309Z,2.50
2023-01-13T17:38:11.723Z,2.25
2023-01-13T17:40:38.093Z,2.03
2023-01-13T17:43:04.488Z,3.55
2023-01-13T17:45:30.876Z,2.30
2023-01-13T17:47:57.344Z,2.72
2023-01-13T17:50:23.788Z,2.72
2023-01-13T17:52:50.173Z,2.63
2023-01-13T17:55:16.623Z,2.42
2023-01-13T17:57:43.060Z,2.17
2023-01-13T18:00:09.427Z,2.72
2023-01-13T18:02:35.879Z,2.33
2023-01-13T18:05:02.281Z,2.30
2023-01-13T18:07:28.717Z,2.67
2023-01-13T18:09:55.172Z,2.33
2023-01-13T18:12:21.589Z,2.08
2023-01-13T18:14:47.983Z,2.00
2023-01-13T18:17:14.669Z,1.90
2023-01-13T18:19:41.070Z,2.55
2023-01-13T18:22:07.475Z,1.67
2023-01-13T18:24:33.908Z,2.42
2023-01-13T18:27:00.339Z,2.65
2023-01-13T18:29:26.709Z,1.83
2023-01-13T18:31:53.111Z,1.95
2023-01-13T18:34:19.563Z,2.22
2023-01-13T18:36:45.979Z,1.70
2023-01-13T18:39:12.357Z,1.92
2023-01-13T18:41:38.781Z,1.83
2023-01-13T18:44:05.216Z,2.00
2023-01-13T18:46:31.653Z,1.55
2023-01-13T18:48:58.104Z,1.73
2023-01-13T18:51:24.502Z,1.85
2023-01-13T18:53:50.904Z,1.63
2023-01-13T18:56:17.344Z,1.70
2023-01-13T18:58:43.795Z,1.90
2023-01-13T19:01:10.261Z,1.58
2023-01-13T19:03:36.713Z,1.83
2023-01-13T19:06:03.167Z,1.50
2023-01-13T19:08:29.604Z,1.50
2023-01-13T19:10:56.065Z,1.55
2023-01-13T19:13:22.695Z,1.25
2023-01-13T19:15:49.445Z,1.42
2023-01-13T19:18:15.846Z,1.63
2023-01-13T19:20:42.215Z,1.40
2023-01-13T19:23:08.597Z,1.48
2023-01-13T19:25:35.028Z,1.50
2023-01-13T19:28:01.504Z,1.10
2023-01-13T19:30:27.876Z,1.20
2023-01-13T19:32:54.308Z,1.20
2023-01-13T19:35:20.753Z,1.40
2023-01-13T19:37:47.200Z,1.38
2023-01-13T19:40:13.668Z,1.25
2023-01-13T19:42:40.044Z,1.88
2023-01-13T19:45:06.406Z,1.70
2023-01-13T19:47:32.925Z,1.50
2023-01-13T19:49:59.309Z,1.50
2023-01-13T19:52:25.671Z,1.48
2023-01-13T19:54:52.135Z,1.48
2023-01-13T19:57:18.511Z,1.80
2023-01-13T19:59:44.905Z,1.85
2023-01-13T20:02:11.297Z,2.17
2023-01-13T20:04:37.770Z,1.85
2023-01-13T20:07:04.330Z,1.45
2023-01-13T20:09:30.759Z,1.55
2023-01-13T20:11:57.252Z,1.42
2023-01-13T20:14:23.713Z,1.90
2023-01-13T20:16:50.195Z,1.73
2023-01-13T20:19:16.636Z,1.30
2023-01-13T20:21:43.031Z,1.38
2023-01-13T20:24:09.465Z,1.63
2023-01-13T20:26:35.838Z,1.95
2023-01-13T20:29:02.264Z,1.85
2023-01-13T20:31:28.671Z,1.63
2023-01-13T20:33:55.056Z,2.00
2023-01-13T20:36:21.471Z,1.40
2023-01-13T20:38:47.863Z,1.70
2023-01-13T20:41:14.404Z,2.10
2023-01-13T20:43:40.848Z,1.90
2023-01-13T20:46:07.243Z,2.03
2023-01-13T20:48:33.655Z,1.60
2023-01-13T20:51:00.086Z,1.45
2023-01-13T20:53:26.470Z,2.05
2023-01-13T20:55:52.854Z,2.20
2023-01-13T20:58:19.274Z,1.55
2023-01-13T21:00:45.681Z,1.80
2023-01-13T21:03:12.424Z,1.63
2023-01-13T21:05:39.394Z,1.77
2023-01-13T21:08:05.832Z,1.75
2023-01-13T21:10:32.268Z,1.58
2023-01-13T21:12:58.661Z,1.67
2023-01-13T21:15:25.105Z,1.90
2023-01-13T21:17:51.506Z,1.75
2023-01-13T21:20:17.956Z,2.47
2023-01-13T21:22:44.597Z,1.58
2023-01-13T21:25:10.974Z,1.80
2023-01-13T21:27:37.353Z,1.95
2023-01-13T21:30:03.778Z,1.40
2023-01-13T21:32:30.210Z,1.40
2023-01-13T21:34:56.644Z,1.40
2023-01-13T21:37:23.048Z,1.52
2023-01-13T21:39:49.422Z,1.40
2023-01-13T21:42:15.817Z,1.60
2023-01-13T21:44:42.221Z,1.42
2023-01-13T21:47:08.639Z,1.70
2023-01-13T21:49:35.033Z,1.67
2023-01-13T21:52:01.416Z,1.92
2023-01-13T21:54:27.793Z,1.95
2023-01-13T21:56:54.229Z,2.30
2023-01-13T21:59:20.669Z,1.83
2023-01-13T22:02:23.743Z,1.77
2023-01-13T22:04:33.487Z,1.42
2023-01-13T22:06:59.871Z,1.42
2023-01-13T22:09:26.293Z,1.58
2023-01-13T22:11:52.747Z,1.40
2023-01-13T22:14:19.194Z,1.48
2023-01-13T22:16:45.735Z,1.50
2023-01-13T22:19:12.214Z,1.70
2023-01-13T22:21:38.609Z,1.20
2023-01-13T22:24:04.986Z,1.45
2023-01-13T22:26:31.371Z,1.33
2023-01-13T22:28:57.737Z,1.50
2023-01-13T22:31:24.149Z,1.20
2023-01-13T22:33:50.563Z,1.65
2023-01-13T22:36:16.935Z,1.60
2023-01-13T22:38:43.726Z,1.80
2023-01-13T22:41:10.111Z,1.38
2023-01-13T22:43:36.544Z,1.73
2023-01-13T22:46:02.996Z,1.88
2023-01-13T22:48:29.393Z,1.67
2023-01-13T22:50:55.904Z,1.38
2023-01-13T22:53:22.276Z,1.58
2023-01-13T22:55:48.669Z,1.40
2023-01-13T22:58:15.060Z,2.03
2023-01-13T23:00:41.494Z,1.90
2023-01-13T23:03:07.894Z,1.50
2023-01-13T23:05:34.258Z,1.90
2023-01-13T23:08:00.690Z,1.58
2023-01-13T23:10:27.098Z,1.50
2023-01-13T23:12:53.466Z,1.33
2023-01-13T23:15:19.892Z,2.13
2023-01-13T23:17:46.359Z,2.15
2023-01-13T23:20:12.795Z,2.00
2023-01-13T23:22:39.185Z,1.70
2023-01-13T23:25:05.552Z,1.40
2023-01-13T23:27:31.998Z,2.05
2023-01-13T23:29:58.451Z,1.85
2023-01-13T23:32:24.840Z,1.83
2023-01-13T23:34:51.262Z,2.10
2023-01-13T23:37:17.689Z,1.88
2023-01-13T23:39:44.076Z,2.00
2023-01-13T23:42:10.454Z,2.45
2023-01-13T23:44:36.895Z,2.00
2023-01-13T23:47:03.354Z,1.90
2023-01-13T23:49:29.803Z,2.70
2023-01-13T23:51:56.205Z,3.30
2023-01-13T23:54:22.591Z,1.80
2023-01-13T23:56:48.964Z,1.92
2023-01-13T23:59:15.404Z,2.05
